createdAt,value
2022-10-01T00:00:17.108Z,92.712500
2022-10-01T00:05:17.056Z,92.670833
2022-10-01T00:10:17.194Z,92.554167
2022-10-01T00:15:17.493Z,92.800000
2022-10-01T00:20:17.451Z,93.144000
2022-10-01T00:25:17.253Z,93.416667
2022-10-01T00:30:17.105Z,93.192000
2022-10-01T00:35:17.795Z,92.856000
2022-10-01T00:40:17.164Z,93.133333
2022-10-01T00:45:17.338Z,93.308333
2022-10-01T00:50:17.155Z,93.145833
2022-10-01T00:55:17.247Z,92.679167
2022-10-01T01:00:22.237Z,92.556000
2022-10-01T01:05:17.190Z,92.116667
2022-10-01T01:10:17.221Z,91.487500
2022-10-01T01:15:17.285Z,91.848000
2022-10-01T01:20:17.125Z,91.925000
2022-10-01T01:25:17.163Z,91.704000
2022-10-01T01:30:17.334Z,91.262500
2022-10-01T01:35:17.462Z,90.566667
2022-10-01T01:40:17.204Z,90.233333
2022-10-01T01:45:17.080Z,90.025000
2022-10-01T01:50:17.151Z,89.816667
2022-10-01T01:55:17.109Z,89.883333
2022-10-01T02:00:17.194Z,89.258333
2022-10-01T02:05:17.213Z,88.820833
2022-10-01T02:10:17.193Z,89.200000
2022-10-01T02:15:17.251Z,88.737500
2022-10-01T02:20:17.718Z,88.820833
2022-10-01T02:25:17.206Z,88.562500
2022-10-01T02:30:17.210Z,88.504000
2022-10-01T02:35:17.058Z,88.504167
2022-10-01T02:40:17.035Z,87.975000
2022-10-01T02:45:17.075Z,87.800000
2022-10-01T02:50:17.057Z,87.620833
2022-10-01T02:55:17.119Z,87.529167
2022-10-01T03:00:17.247Z,87.240000
2022-10-01T03:05:17.350Z,86.891667
2022-10-01T03:10:17.100Z,86.675000
2022-10-01T03:15:17.177Z,86.554167
2022-10-01T03:20:16.991Z,86.433333
2022-10-01T03:25:17.048Z,86.408333
2022-10-01T03:30:17.085Z,86.266667
2022-10-01T03:35:17.106Z,86.170833
2022-10-01T03:40:17.060Z,86.325000
2022-10-01T03:45:16.997Z,85.929167
2022-10-01T03:50:17.140Z,85.766667
2022-10-01T03:55:17.298Z,85.633333
2022-10-01T04:00:16.942Z,85.670833
2022-10-01T04:05:17.016Z,85.845833
2022-10-01T04:10:17.245Z,85.684000
2022-10-01T04:15:17.070Z,85.954167
2022-10-01T04:20:16.899Z,85.970833
2022-10-01T04:25:17.355Z,86.566667
2022-10-01T04:30:16.967Z,87.212000
2022-10-01T04:35:17.220Z,87.212500
2022-10-01T04:40:16.908Z,86.916667
2022-10-01T04:45:17.051Z,86.091667
2022-10-01T04:50:17.218Z,85.962500
2022-10-01T04:55:17.151Z,85.620000
2022-10-01T05:00:16.902Z,85.462500
2022-10-01T05:05:16.873Z,85.733333
2022-10-01T05:10:16.981Z,85.752000
2022-10-01T05:15:17.154Z,85.650000
2022-10-01T05:20:16.997Z,86.504000
2022-10-01T05:25:17.042Z,86.616667
2022-10-01T05:30:17.198Z,87.092000
2022-10-01T05:35:17.402Z,87.128000
2022-10-01T05:40:16.863Z,87.758333
2022-10-01T05:45:16.840Z,87.824000
2022-10-01T05:50:17.582Z,87.429167
2022-10-01T05:55:16.991Z,87.125000
2022-10-01T06:00:17.036Z,86.766667
2022-10-01T06:05:16.888Z,86.129167
2022-10-01T06:10:17.324Z,86.050000
2022-10-01T06:15:17.450Z,86.508333
2022-10-01T06:20:16.946Z,85.588000
2022-10-01T06:25:17.022Z,84.380000
2022-10-01T06:30:17.003Z,83.708333
2022-10-01T06:35:16.910Z,84.004167
2022-10-01T06:40:16.901Z,83.850000
2022-10-01T06:45:16.841Z,82.800000
2022-10-01T06:50:17.110Z,82.841667
2022-10-01T06:55:17.029Z,81.391667
2022-10-01T07:00:17.182Z,80.445833
2022-10-01T07:05:16.929Z,80.533333
2022-10-01T07:10:16.951Z,80.280000
2022-10-01T07:15:17.219Z,80.079167
2022-10-01T07:20:16.961Z,80.250000
2022-10-01T07:25:17.056Z,79.487500
2022-10-01T07:30:16.920Z,79.000000
2022-10-01T07:35:17.186Z,78.683333
2022-10-01T07:40:17.093Z,78.887500
2022-10-01T07:45:16.815Z,79.125000
2022-10-01T07:50:16.885Z,78.416667
2022-10-01T07:55:16.900Z,78.183333
2022-10-01T08:00:16.844Z,79.575000
2022-10-01T08:05:16.851Z,78.620000
2022-10-01T08:10:17.164Z,77.772000
2022-10-01T08:15:16.976Z,76.945833
2022-10-01T08:20:17.050Z,76.716667
2022-10-01T08:25:17.077Z,75.512500
2022-10-01T08:30:17.117Z,75.550000
2022-10-01T08:35:16.806Z,75.370833
2022-10-01T08:40:16.970Z,75.595833
2022-10-01T08:45:16.922Z,76.524000
2022-10-01T08:50:17.066Z,76.670833
2022-10-01T08:55:16.869Z,77.133333
2022-10-01T09:00:16.826Z,76.564000
2022-10-01T09:05:16.817Z,77.620833
2022-10-01T09:10:16.898Z,77.879167
2022-10-01T09:15:17.132Z,78.372000
2022-10-01T09:20:16.949Z,78.741667
2022-10-01T09:25:16.853Z,79.137500
2022-10-01T09:30:16.868Z,79.283333
2022-10-01T09:35:16.980Z,80.166667
2022-10-01T09:40:16.843Z,80.220833
2022-10-01T09:45:17.006Z,79.556000
2022-10-01T09:50:17.089Z,80.324000
2022-10-01T09:55:16.937Z,80.608000
2022-10-01T10:00:17.121Z,79.468000
2022-10-01T10:05:17.110Z,78.976000
2022-10-01T10:10:18.102Z,78.788000
2022-10-01T10:15:16.898Z,79.780000
2022-10-01T10:20:16.814Z,80.258333
2022-10-01T10:25:16.854Z,80.570833
2022-10-01T10:30:16.862Z,81.350000
2022-10-01T10:35:16.928Z,82.470833
2022-10-01T10:40:16.998Z,83.066667
2022-10-01T10:45:16.959Z,83.383333
2022-10-01T10:50:16.881Z,83.854167
2022-10-01T10:55:16.907Z,83.950000
2022-10-01T11:00:16.759Z,84.008333
2022-10-01T11:05:16.927Z,84.032000
2022-10-01T11:10:16.992Z,84.404167
2022-10-01T11:15:16.824Z,84.537500
2022-10-01T11:20:20.604Z,84.750000
2022-10-01T11:25:16.817Z,85.295833
2022-10-01T11:30:16.850Z,85.476000
2022-10-01T11:35:16.779Z,85.672000
2022-10-01T11:40:16.942Z,85.775000
2022-10-01T11:45:16.763Z,85.825000
2022-10-01T11:50:17.189Z,85.920833
2022-10-01T11:55:16.721Z,85.983333
2022-10-01T12:00:17.042Z,85.725000
2022-10-01T12:05:17.425Z,85.679167
2022-10-01T12:10:16.983Z,85.691667
2022-10-01T12:15:16.770Z,85.768000
2022-10-01T12:20:16.782Z,85.720833
2022-10-01T12:25:16.998Z,85.750000
2022-10-01T12:30:16.853Z,86.160000
2022-10-01T12:35:16.855Z,86.358333
2022-10-01T12:40:17.087Z,86.362500
2022-10-01T12:45:17.121Z,86.266667
2022-10-01T12:50:16.980Z,86.391667
2022-10-01T12:55:16.811Z,86.536000
2022-10-01T13:00:16.839Z,86.783333
2022-10-01T13:05:16.802Z,87.033333
2022-10-01T13:10:16.749Z,86.856000
2022-10-01T13:15:16.882Z,86.633333
2022-10-01T13:20:16.811Z,86.333333
2022-10-01T13:25:16.860Z,86.037500
2022-10-01T13:30:16.834Z,85.292000
2022-10-01T13:35:16.831Z,84.733333
2022-10-01T13:40:16.995Z,84.600000
2022-10-01T13:45:16.923Z,84.176000
2022-10-01T13:50:16.906Z,83.495833
2022-10-01T13:55:16.855Z,82.912500
2022-10-01T14:00:16.769Z,82.532000
2022-10-01T14:05:16.862Z,81.841667
2022-10-01T14:10:17.022Z,82.166667
2022-10-01T14:15:16.895Z,82.308333
2022-10-01T14:20:16.688Z,82.454167
2022-10-01T14:25:16.774Z,82.808333
2022-10-01T14:30:17.064Z,83.191667
2022-10-01T14:35:17.066Z,82.945833
2022-10-01T14:40:16.918Z,82.800000
2022-10-01T14:45:16.958Z,82.640000
2022-10-01T14:50:17.337Z,82.220833
2022-10-01T14:55:16.813Z,81.954167
2022-10-01T15:00:16.729Z,81.825000
2022-10-01T15:05:20.133Z,81.568000
2022-10-01T15:10:17.198Z,80.604167
2022-10-01T15:15:16.815Z,80.091667
2022-10-01T15:20:16.903Z,79.891667
2022-10-01T15:25:16.941Z,79.652000
2022-10-01T15:30:16.750Z,80.179167
2022-10-01T15:35:16.862Z,80.332000
2022-10-01T15:40:17.137Z,80.179167
2022-10-01T15:45:16.715Z,80.358333
2022-10-01T15:50:16.904Z,80.533333
2022-10-01T15:55:16.727Z,80.708000
2022-10-01T16:00:16.722Z,80.920833
2022-10-01T16:05:16.661Z,80.816667
2022-10-01T16:10:16.776Z,80.900000
2022-10-01T16:15:17.046Z,81.316667
2022-10-01T16:20:16.675Z,81.762500
2022-10-01T16:25:16.642Z,81.583333
2022-10-01T16:30:16.926Z,81.600000
2022-10-01T16:35:16.931Z,81.720833
2022-10-01T16:40:17.246Z,81.979167
2022-10-01T16:45:16.840Z,82.283333
2022-10-01T16:50:16.782Z,82.545833
2022-10-01T16:55:16.649Z,82.791667
2022-10-01T17:00:16.697Z,82.816667
2022-10-01T17:05:16.702Z,82.866667
2022-10-01T17:10:16.778Z,82.748000
2022-10-01T17:15:16.692Z,82.933333
2022-10-01T17:20:16.830Z,83.300000
2022-10-01T17:25:16.667Z,83.350000
2022-10-01T17:30:16.596Z,83.379167
2022-10-01T17:35:16.603Z,83.466667
2022-10-01T17:40:16.680Z,83.352000
2022-10-01T17:45:16.619Z,83.320833
2022-10-01T17:50:16.795Z,83.272000
2022-10-01T17:55:16.770Z,83.012000
2022-10-01T18:00:16.618Z,82.562500
2022-10-01T18:05:16.757Z,82.537500
2022-10-01T18:10:16.782Z,82.600000
2022-10-01T18:15:16.766Z,82.470833
2022-10-01T18:20:16.846Z,82.504000
2022-10-01T18:25:16.826Z,82.625000
2022-10-01T18:30:17.261Z,82.632000
2022-10-01T18:35:17.361Z,82.645833
2022-10-01T18:40:16.662Z,82.533333
2022-10-01T18:45:16.630Z,82.550000
2022-10-01T18:50:16.612Z,82.860000
2022-10-01T18:55:20.978Z,82.833333
2022-10-01T19:00:16.575Z,82.866667
2022-10-01T19:05:16.846Z,83.095833
2022-10-01T19:10:16.956Z,83.616667
2022-10-01T19:15:16.665Z,83.883333
2022-10-01T19:20:16.782Z,83.887500
2022-10-01T19:25:16.695Z,83.895833
2022-10-01T19:30:16.677Z,83.950000
2022-10-01T19:35:16.978Z,83.658333
2022-10-01T19:40:16.636Z,83.650000
2022-10-01T19:45:16.612Z,83.716000
2022-10-01T19:50:16.749Z,84.066667
2022-10-01T19:55:17.048Z,84.295833
2022-10-01T20:00:16.636Z,84.454167
2022-10-01T20:05:16.826Z,84.375000
2022-10-01T20:10:17.111Z,84.283333
2022-10-01T20:15:16.799Z,84.254167
2022-10-01T20:20:16.651Z,84.266667
2022-10-01T20:25:16.548Z,84.428000
2022-10-01T20:30:16.686Z,84.420833
2022-10-01T20:35:16.543Z,84.412500
2022-10-01T20:40:16.949Z,84.554167
2022-10-01T20:45:16.525Z,84.891667
2022-10-01T20:50:16.770Z,84.966667
2022-10-01T20:55:16.708Z,85.050000
2022-10-01T21:00:16.649Z,85.032000
2022-10-01T21:05:16.614Z,85.166667
2022-10-01T21:10:16.693Z,85.580000
2022-10-01T21:15:16.669Z,85.848000
2022-10-01T21:20:16.682Z,85.848000
2022-10-01T21:25:16.516Z,85.700000
2022-10-01T21:30:16.696Z,85.862500
2022-10-01T21:35:16.811Z,85.783333
2022-10-01T21:40:16.810Z,85.908333
2022-10-01T21:45:16.593Z,85.695833
2022-10-01T21:50:16.609Z,85.866667
2022-10-01T21:55:16.604Z,85.958333
2022-10-01T22:00:17.270Z,86.020833
2022-10-01T22:05:16.690Z,86.236000
2022-10-01T22:10:16.914Z,86.416667
2022-10-01T22:15:16.566Z,86.650000
2022-10-01T22:20:16.778Z,86.595833
2022-10-01T22:25:16.547Z,86.175000
2022-10-01T22:30:16.603Z,85.950000
2022-10-01T22:35:16.573Z,85.883333
2022-10-01T22:40:16.666Z,85.766667
2022-10-01T22:45:16.569Z,85.445833
2022-10-01T22:50:16.654Z,85.266667
2022-10-01T22:55:16.518Z,85.054167
2022-10-01T23:00:16.510Z,85.058333
2022-10-01T23:05:16.533Z,85.250000
2022-10-01T23:10:16.903Z,85.225000
2022-10-01T23:15:16.516Z,85.183333
2022-10-01T23:20:16.612Z,85.316667
2022-10-01T23:25:16.547Z,85.283333
2022-10-01T23:30:16.950Z,85.412500
2022-10-01T23:35:16.508Z,85.333333
2022-10-01T23:40:16.550Z,84.762500
2022-10-01T23:45:16.571Z,84.554167
2022-10-01T23:50:16.726Z,84.533333
2022-10-01T23:55:16.518Z,84.425000
